sensor_id;sensor_type;location;lat;lon;timestamp;temperature;humidity
51739;DHT22;37815;52.692;6.226;2022-11-09T00:04:13;13.60;99.90
51739;DHT22;37815;52.692;6.226;2022-11-09T00:09:14;13.60;99.90
51739;DHT22;37815;52.692;6.226;2022-11-09T00:14:16;13.60;99.90
51739;DHT22;37815;52.692;6.226;2022-11-09T00:19:16;13.60;99.90
51739;DHT22;37815;52.692;6.226;2022-11-09T00:24:17;13.60;99.90
51739;DHT22;37815;52.692;6.226;2022-11-09T00:29:18;13.60;99.90
51739;DHT22;37815;52.692;6.226;2022-11-09T00:34:19;13.60;99.90
51739;DHT22;37815;52.692;6.226;2022-11-09T00:39:19;13.60;99.90
51739;DHT22;37815;52.692;6.226;2022-11-09T00:44:20;13.60;99.90
51739;DHT22;37815;52.692;6.226;2022-11-09T00:49:21;13.60;99.90
51739;DHT22;37815;52.692;6.226;2022-11-09T00:54:21;13.60;99.90
51739;DHT22;37815;52.692;6.226;2022-11-09T00:59:22;13.60;99.90
51739;DHT22;37815;52.692;6.226;2022-11-09T01:04:23;13.60;99.90
51739;DHT22;37815;52.692;6.226;2022-11-09T01:09:23;13.60;99.90
51739;DHT22;37815;52.692;6.226;2022-11-09T01:14:24;13.60;99.90
51739;DHT22;37815;52.692;6.226;2022-11-09T01:19:25;13.60;99.90
51739;DHT22;37815;52.692;6.226;2022-11-09T01:24:25;13.60;99.90
51739;DHT22;37815;52.692;6.226;2022-11-09T01:29:26;13.60;99.90
51739;DHT22;37815;52.692;6.226;2022-11-09T01:34:27;13.60;99.90
51739;DHT22;37815;52.692;6.226;2022-11-09T01:39:28;13.60;99.90
51739;DHT22;37815;52.692;6.226;2022-11-09T01:44:29;13.60;99.90
51739;DHT22;37815;52.692;6.226;2022-11-09T01:54:44;13.60;99.90
51739;DHT22;37815;52.692;6.226;2022-11-09T01:59:50;13.60;99.90
51739;DHT22;37815;52.692;6.226;2022-11-09T02:04:55;13.60;99.90
51739;DHT22;37815;52.692;6.226;2022-11-09T02:10:16;13.60;99.90
51739;DHT22;37815;52.692;6.226;2022-11-09T02:15:20;13.60;99.90
51739;DHT22;37815;52.692;6.226;2022-11-09T02:20:22;13.50;99.90
51739;DHT22;37815;52.692;6.226;2022-11-09T02:25:23;13.50;99.90
51739;DHT22;37815;52.692;6.226;2022-11-09T02:30:24;13.50;99.90
51739;DHT22;37815;52.692;6.226;2022-11-09T02:35:25;13.50;99.90
51739;DHT22;37815;52.692;6.226;2022-11-09T02:40:31;13.50;99.90
51739;DHT22;37815;52.692;6.226;2022-11-09T02:45:32;13.50;99.90
51739;DHT22;37815;52.692;6.226;2022-11-09T02:50:33;13.50;99.90
51739;DHT22;37815;52.692;6.226;2022-11-09T02:55:36;13.50;99.90
51739;DHT22;37815;52.692;6.226;2022-11-09T03:00:39;13.50;99.90
51739;DHT22;37815;52.692;6.226;2022-11-09T03:05:40;13.50;99.90
51739;DHT22;37815;52.692;6.226;2022-11-09T03:10:43;13.50;99.90
51739;DHT22;37815;52.692;6.226;2022-11-09T03:15:44;13.50;99.90
51739;DHT22;37815;52.692;6.226;2022-11-09T03:20:44;13.50;99.90
51739;DHT22;37815;52.692;6.226;2022-11-09T03:25:45;13.50;99.90
51739;DHT22;37815;52.692;6.226;2022-11-09T03:30:46;13.50;99.90
51739;DHT22;37815;52.692;6.226;2022-11-09T03:35:46;13.50;99.90
51739;DHT22;37815;52.692;6.226;2022-11-09T03:40:47;13.50;99.90
51739;DHT22;37815;52.692;6.226;2022-11-09T03:45:48;13.50;99.90
51739;DHT22;37815;52.692;6.226;2022-11-09T03:50:49;13.40;99.90
51739;DHT22;37815;52.692;6.226;2022-11-09T03:55:50;13.40;99.90
51739;DHT22;37815;52.692;6.226;2022-11-09T04:00:50;13.50;99.90
51739;DHT22;37815;52.692;6.226;2022-11-09T04:05:51;13.40;99.90
51739;DHT22;37815;52.692;6.226;2022-11-09T04:10:52;13.50;99.90
51739;DHT22;37815;52.692;6.226;2022-11-09T04:15:53;13.40;99.90
51739;DHT22;37815;52.692;6.226;2022-11-09T04:20:53;13.40;99.90
51739;DHT22;37815;52.692;6.226;2022-11-09T04:25:57;13.40;99.90
51739;DHT22;37815;52.692;6.226;2022-11-09T04:31:01;13.40;99.90
51739;DHT22;37815;52.692;6.226;2022-11-09T04:36:03;13.40;99.90
51739;DHT22;37815;52.692;6.226;2022-11-09T04:41:04;13.40;99.90
51739;DHT22;37815;52.692;6.226;2022-11-09T04:46:05;13.40;99.90
51739;DHT22;37815;52.692;6.226;2022-11-09T04:51:07;13.40;99.90
51739;DHT22;37815;52.692;6.226;2022-11-09T04:56:08;13.40;99.90
51739;DHT22;37815;52.692;6.226;2022-11-09T05:01:12;13.30;99.90
51739;DHT22;37815;52.692;6.226;2022-11-09T05:06:13;13.40;99.90
51739;DHT22;37815;52.692;6.226;2022-11-09T05:11:34;13.30;99.90
51739;DHT22;37815;52.692;6.226;2022-11-09T05:16:34;13.30;99.90
51739;DHT22;37815;52.692;6.226;2022-11-09T05:21:35;13.30;99.90
51739;DHT22;37815;52.692;6.226;2022-11-09T05:26:40;13.30;99.90
51739;DHT22;37815;52.692;6.226;2022-11-09T05:31:41;13.30;99.90
51739;DHT22;37815;52.692;6.226;2022-11-09T05:36:42;13.30;99.90
51739;DHT22;37815;52.692;6.226;2022-11-09T05:41:42;13.30;99.90
51739;DHT22;37815;52.692;6.226;2022-11-09T05:46:43;13.30;99.90
51739;DHT22;37815;52.692;6.226;2022-11-09T05:51:44;13.30;99.90
51739;DHT22;37815;52.692;6.226;2022-11-09T05:56:44;13.30;99.90
51739;DHT22;37815;52.692;6.226;2022-11-09T06:01:45;13.30;99.90
51739;DHT22;37815;52.692;6.226;2022-11-09T06:06:46;13.30;99.90
51739;DHT22;37815;52.692;6.226;2022-11-09T06:11:49;13.30;99.90
51739;DHT22;37815;52.692;6.226;2022-11-09T06:16:50;13.30;99.90
51739;DHT22;37815;52.692;6.226;2022-11-09T06:21:50;13.30;99.90
51739;DHT22;37815;52.692;6.226;2022-11-09T06:26:51;13.30;99.90
51739;DHT22;37815;52.692;6.226;2022-11-09T06:31:52;13.20;99.90
51739;DHT22;37815;52.692;6.226;2022-11-09T06:36:53;13.20;99.90
51739;DHT22;37815;52.692;6.226;2022-11-09T06:41:53;13.20;99.90
51739;DHT22;37815;52.692;6.226;2022-11-09T06:46:54;13.20;99.90
51739;DHT22;37815;52.692;6.226;2022-11-09T06:51:55;13.20;99.90
51739;DHT22;37815;52.692;6.226;2022-11-09T06:56:55;13.30;99.90
51739;DHT22;37815;52.692;6.226;2022-11-09T07:01:56;13.20;99.90
51739;DHT22;37815;52.692;6.226;2022-11-09T07:06:57;13.20;99.90
51739;DHT22;37815;52.692;6.226;2022-11-09T07:11:58;13.20;99.90
51739;DHT22;37815;52.692;6.226;2022-11-09T07:16:59;13.20;99.90
51739;DHT22;37815;52.692;6.226;2022-11-09T07:22:00;13.20;99.90
51739;DHT22;37815;52.692;6.226;2022-11-09T07:27:01;13.20;99.90
51739;DHT22;37815;52.692;6.226;2022-11-09T07:32:02;13.20;99.90
51739;DHT22;37815;52.692;6.226;2022-11-09T07:37:02;13.20;99.90
51739;DHT22;37815;52.692;6.226;2022-11-09T07:42:03;13.20;99.90
51739;DHT22;37815;52.692;6.226;2022-11-09T07:47:05;13.20;99.90
51739;DHT22;37815;52.692;6.226;2022-11-09T07:52:06;13.20;99.90
51739;DHT22;37815;52.692;6.226;2022-11-09T07:57:07;13.30;99.90
51739;DHT22;37815;52.692;6.226;2022-11-09T08:02:08;13.20;99.90
51739;DHT22;37815;52.692;6.226;2022-11-09T08:07:09;13.30;99.90
51739;DHT22;37815;52.692;6.226;2022-11-09T08:12:09;13.30;99.90
51739;DHT22;37815;52.692;6.226;2022-11-09T08:17:10;13.30;99.90
51739;DHT22;37815;52.692;6.226;2022-11-09T08:22:11;13.30;99.90
51739;DHT22;37815;52.692;6.226;2022-11-09T08:27:12;13.30;99.90
51739;DHT22;37815;52.692;6.226;2022-11-09T08:32:12;13.40;99.90
51739;DHT22;37815;52.692;6.226;2022-11-09T08:37:14;13.40;99.90
51739;DHT22;37815;52.692;6.226;2022-11-09T08:42:15;13.50;99.90
51739;DHT22;37815;52.692;6.226;2022-11-09T08:47:16;13.50;99.90
51739;DHT22;37815;52.692;6.226;2022-11-09T08:52:17;13.60;99.90
51739;DHT22;37815;52.692;6.226;2022-11-09T08:57:18;13.70;99.90
51739;DHT22;37815;52.692;6.226;2022-11-09T09:02:19;13.70;99.90
51739;DHT22;37815;52.692;6.226;2022-11-09T09:07:20;13.70;99.90
51739;DHT22;37815;52.692;6.226;2022-11-09T09:12:21;13.70;99.90
51739;DHT22;37815;52.692;6.226;2022-11-09T09:17:21;13.70;99.90
51739;DHT22;37815;52.692;6.226;2022-11-09T09:22:22;13.60;99.90
51739;DHT22;37815;52.692;6.226;2022-11-09T09:27:23;13.80;99.90
51739;DHT22;37815;52.692;6.226;2022-11-09T09:32:24;13.80;99.90
51739;DHT22;37815;52.692;6.226;2022-11-09T09:37:25;13.80;99.90
51739;DHT22;37815;52.692;6.226;2022-11-09T09:42:39;13.80;99.90
51739;DHT22;37815;52.692;6.226;2022-11-09T09:48:11;13.90;99.90
51739;DHT22;37815;52.692;6.226;2022-11-09T09:58:26;13.80;99.90
51739;DHT22;37815;52.692;6.226;2022-11-09T10:03:27;13.80;99.90
51739;DHT22;37815;52.692;6.226;2022-11-09T10:08:58;13.90;99.90
51739;DHT22;37815;52.692;6.226;2022-11-09T10:25:20;13.90;99.90
51739;DHT22;37815;52.692;6.226;2022-11-09T10:30:24;13.90;99.90
51739;DHT22;37815;52.692;6.226;2022-11-09T10:35:32;13.90;99.90
51739;DHT22;37815;52.692;6.226;2022-11-09T10:40:38;13.90;99.90
51739;DHT22;37815;52.692;6.226;2022-11-09T10:45:43;13.90;99.90
51739;DHT22;37815;52.692;6.226;2022-11-09T10:50:50;13.90;99.90
51739;DHT22;37815;52.692;6.226;2022-11-09T11:01:14;14.00;99.90
51739;DHT22;37815;52.692;6.226;2022-11-09T11:11:28;14.00;99.90
51739;DHT22;37815;52.692;6.226;2022-11-09T11:16:34;14.00;99.90
51739;DHT22;37815;52.692;6.226;2022-11-09T11:21:35;14.00;99.90
51739;DHT22;37815;52.692;6.226;2022-11-09T11:26:58;13.90;99.90
51739;DHT22;37815;52.692;6.226;2022-11-09T11:32:01;13.90;99.90
51739;DHT22;37815;52.692;6.226;2022-11-09T11:37:24;13.90;99.90
51739;DHT22;37815;52.692;6.226;2022-11-09T11:59:34;14.00;99.90
51739;DHT22;37815;52.692;6.226;2022-11-09T12:20:37;14.00;99.90
51739;DHT22;37815;52.692;6.226;2022-11-09T12:26:04;14.00;99.90
51739;DHT22;37815;52.692;6.226;2022-11-09T12:36:41;14.00;99.90
51739;DHT22;37815;52.692;6.226;2022-11-09T12:41:46;14.00;99.90
51739;DHT22;37815;52.692;6.226;2022-11-09T12:46:50;14.00;99.90
51739;DHT22;37815;52.692;6.226;2022-11-09T12:51:52;14.00;99.90
51739;DHT22;37815;52.692;6.226;2022-11-09T12:57:00;14.00;99.90
51739;DHT22;37815;52.692;6.226;2022-11-09T13:02:02;14.00;99.90
51739;DHT22;37815;52.692;6.226;2022-11-09T13:17:49;14.20;99.90
51739;DHT22;37815;52.692;6.226;2022-11-09T13:22:55;14.20;99.90
51739;DHT22;37815;52.692;6.226;2022-11-09T13:27:56;14.30;99.90
51739;DHT22;37815;52.692;6.226;2022-11-09T13:38:17;14.20;99.90
51739;DHT22;37815;52.692;6.226;2022-11-09T13:43:28;14.20;99.90
51739;DHT22;37815;52.692;6.226;2022-11-09T13:53:58;14.20;99.90
51739;DHT22;37815;52.692;6.226;2022-11-09T13:59:10;14.20;99.90
51739;DHT22;37815;52.692;6.226;2022-11-09T14:09:24;14.20;99.90
51739;DHT22;37815;52.692;6.226;2022-11-09T14:25:18;14.10;99.90
51739;DHT22;37815;52.692;6.226;2022-11-09T14:30:24;14.10;99.90
51739;DHT22;37815;52.692;6.226;2022-11-09T14:35:35;14.10;99.90
51739;DHT22;37815;52.692;6.226;2022-11-09T14:40:36;14.10;99.90
51739;DHT22;37815;52.692;6.226;2022-11-09T14:45:54;14.00;99.90
51739;DHT22;37815;52.692;6.226;2022-11-09T14:51:01;14.00;99.90
51739;DHT22;37815;52.692;6.226;2022-11-09T14:56:06;14.10;99.90
51739;DHT22;37815;52.692;6.226;2022-11-09T15:06:17;14.00;99.90
51739;DHT22;37815;52.692;6.226;2022-11-09T15:11:18;14.00;99.90
51739;DHT22;37815;52.692;6.226;2022-11-09T15:16:22;14.00;99.90
51739;DHT22;37815;52.692;6.226;2022-11-09T15:31:28;13.90;99.90
51739;DHT22;37815;52.692;6.226;2022-11-09T15:36:34;13.90;99.90
51739;DHT22;37815;52.692;6.226;2022-11-09T15:41:35;13.90;99.90
51739;DHT22;37815;52.692;6.226;2022-11-09T15:46:51;13.70;99.90
51739;DHT22;37815;52.692;6.226;2022-11-09T15:51:52;13.90;99.90
51739;DHT22;37815;52.692;6.226;2022-11-09T15:56:53;13.80;99.90
51739;DHT22;37815;52.692;6.226;2022-11-09T16:01:59;13.80;99.90
51739;DHT22;37815;52.692;6.226;2022-11-09T16:07:00;13.80;99.90
51739;DHT22;37815;52.692;6.226;2022-11-09T16:12:01;13.80;99.90
51739;DHT22;37815;52.692;6.226;2022-11-09T16:17:02;13.80;99.90
51739;DHT22;37815;52.692;6.226;2022-11-09T16:22:03;13.80;99.90
51739;DHT22;37815;52.692;6.226;2022-11-09T16:27:05;13.80;99.90
51739;DHT22;37815;52.692;6.226;2022-11-09T16:32:06;13.80;99.90
51739;DHT22;37815;52.692;6.226;2022-11-09T16:37:07;13.70;99.90
51739;DHT22;37815;52.692;6.226;2022-11-09T16:42:09;13.70;99.90
51739;DHT22;37815;52.692;6.226;2022-11-09T16:47:13;13.70;99.90
51739;DHT22;37815;52.692;6.226;2022-11-09T16:52:15;13.70;99.90
51739;DHT22;37815;52.692;6.226;2022-11-09T16:57:15;13.70;99.90
51739;DHT22;37815;52.692;6.226;2022-11-09T17:02:16;13.70;99.90
51739;DHT22;37815;52.692;6.226;2022-11-09T17:07:17;13.70;99.90
51739;DHT22;37815;52.692;6.226;2022-11-09T17:12:18;13.70;99.90
51739;DHT22;37815;52.692;6.226;2022-11-09T17:17:18;13.70;99.90
51739;DHT22;37815;52.692;6.226;2022-11-09T17:22:19;13.70;99.90
51739;DHT22;37815;52.692;6.226;2022-11-09T17:27:20;13.60;99.90
51739;DHT22;37815;52.692;6.226;2022-11-09T17:32:21;13.60;99.90
51739;DHT22;37815;52.692;6.226;2022-11-09T17:37:25;13.60;99.90
51739;DHT22;37815;52.692;6.226;2022-11-09T17:42:26;13.60;99.90
51739;DHT22;37815;52.692;6.226;2022-11-09T17:47:26;13.60;99.90
51739;DHT22;37815;52.692;6.226;2022-11-09T17:52:27;13.60;99.90
51739;DHT22;37815;52.692;6.226;2022-11-09T17:57:28;13.60;99.90
51739;DHT22;37815;52.692;6.226;2022-11-09T18:02:28;13.60;99.90
51739;DHT22;37815;52.692;6.226;2022-11-09T18:07:29;13.60;99.90
51739;DHT22;37815;52.692;6.226;2022-11-09T18:12:30;13.60;99.90
51739;DHT22;37815;52.692;6.226;2022-11-09T18:17:31;13.60;99.90
51739;DHT22;37815;52.692;6.226;2022-11-09T18:22:31;13.60;99.90
51739;DHT22;37815;52.692;6.226;2022-11-09T18:27:32;13.60;99.90
51739;DHT22;37815;52.692;6.226;2022-11-09T18:32:33;13.60;99.90
51739;DHT22;37815;52.692;6.226;2022-11-09T18:37:37;13.50;99.90
51739;DHT22;37815;52.692;6.226;2022-11-09T18:42:38;13.50;99.90
51739;DHT22;37815;52.692;6.226;2022-11-09T18:47:39;13.50;99.90
51739;DHT22;37815;52.692;6.226;2022-11-09T18:52:39;13.50;99.90
51739;DHT22;37815;52.692;6.226;2022-11-09T18:57:40;13.50;99.90
51739;DHT22;37815;52.692;6.226;2022-11-09T19:02:41;13.50;99.90
51739;DHT22;37815;52.692;6.226;2022-11-09T19:07:41;13.50;99.90
51739;DHT22;37815;52.692;6.226;2022-11-09T19:12:42;13.50;99.90
51739;DHT22;37815;52.692;6.226;2022-11-09T19:17:43;13.50;99.90
51739;DHT22;37815;52.692;6.226;2022-11-09T19:22:43;13.50;99.90
51739;DHT22;37815;52.692;6.226;2022-11-09T19:27:44;13.40;99.90
51739;DHT22;37815;52.692;6.226;2022-11-09T19:32:45;13.40;99.90
51739;DHT22;37815;52.692;6.226;2022-11-09T19:37:45;13.40;99.90
51739;DHT22;37815;52.692;6.226;2022-11-09T19:42:46;13.40;99.90
51739;DHT22;37815;52.692;6.226;2022-11-09T19:47:48;13.50;99.90
51739;DHT22;37815;52.692;6.226;2022-11-09T19:52:49;13.40;99.90
51739;DHT22;37815;52.692;6.226;2022-11-09T19:57:49;13.40;99.90
51739;DHT22;37815;52.692;6.226;2022-11-09T20:02:50;13.20;99.90
51739;DHT22;37815;52.692;6.226;2022-11-09T20:07:51;13.40;99.90
51739;DHT22;37815;52.692;6.226;2022-11-09T20:12:51;13.40;99.90
51739;DHT22;37815;52.692;6.226;2022-11-09T20:17:54;13.40;99.90
51739;DHT22;37815;52.692;6.226;2022-11-09T20:22:54;13.40;99.90
51739;DHT22;37815;52.692;6.226;2022-11-09T20:27:55;13.40;99.90
51739;DHT22;37815;52.692;6.226;2022-11-09T20:32:56;13.40;99.90
51739;DHT22;37815;52.692;6.226;2022-11-09T20:37:56;13.40;99.90
51739;DHT22;37815;52.692;6.226;2022-11-09T20:42:57;13.30;99.90
51739;DHT22;37815;52.692;6.226;2022-11-09T20:47:58;13.30;99.90
51739;DHT22;37815;52.692;6.226;2022-11-09T20:52:59;13.30;99.90
51739;DHT22;37815;52.692;6.226;2022-11-09T20:57:59;13.30;99.90
51739;DHT22;37815;52.692;6.226;2022-11-09T21:03:00;13.30;99.90
51739;DHT22;37815;52.692;6.226;2022-11-09T21:08:01;13.30;99.90
51739;DHT22;37815;52.692;6.226;2022-11-09T21:13:01;13.20;99.90
51739;DHT22;37815;52.692;6.226;2022-11-09T21:18:02;13.20;99.90
51739;DHT22;37815;52.692;6.226;2022-11-09T21:23:03;13.20;99.90
51739;DHT22;37815;52.692;6.226;2022-11-09T21:28:14;13.20;99.90
51739;DHT22;37815;52.692;6.226;2022-11-09T21:33:33;13.20;99.90
51739;DHT22;37815;52.692;6.226;2022-11-09T21:38:36;13.20;99.90
51739;DHT22;37815;52.692;6.226;2022-11-09T21:43:37;13.20;99.90
51739;DHT22;37815;52.692;6.226;2022-11-09T21:48:38;13.10;99.90
51739;DHT22;37815;52.692;6.226;2022-11-09T21:53:39;13.10;99.90
51739;DHT22;37815;52.692;6.226;2022-11-09T21:58:39;13.10;99.90
51739;DHT22;37815;52.692;6.226;2022-11-09T22:03:46;13.10;99.90
51739;DHT22;37815;52.692;6.226;2022-11-09T22:08:47;13.10;99.90
51739;DHT22;37815;52.692;6.226;2022-11-09T22:13:48;13.10;99.90
51739;DHT22;37815;52.692;6.226;2022-11-09T22:19:07;13.10;99.90
51739;DHT22;37815;52.692;6.226;2022-11-09T22:24:27;13.10;99.90
51739;DHT22;37815;52.692;6.226;2022-11-09T22:29:28;13.10;99.90
51739;DHT22;37815;52.692;6.226;2022-11-09T22:34:29;13.00;99.90
51739;DHT22;37815;52.692;6.226;2022-11-09T22:39:29;13.00;99.90
51739;DHT22;37815;52.692;6.226;2022-11-09T22:44:48;13.00;99.90
51739;DHT22;37815;52.692;6.226;2022-11-09T22:49:49;13.00;99.90
51739;DHT22;37815;52.692;6.226;2022-11-09T22:54:49;13.00;99.90
51739;DHT22;37815;52.692;6.226;2022-11-09T22:59:50;13.00;99.90
51739;DHT22;37815;52.692;6.226;2022-11-09T23:04:50;13.00;99.90
51739;DHT22;37815;52.692;6.226;2022-11-09T23:09:51;13.00;99.90
51739;DHT22;37815;52.692;6.226;2022-11-09T23:14:52;12.90;99.90
51739;DHT22;37815;52.692;6.226;2022-11-09T23:20:05;12.90;99.90
51739;DHT22;37815;52.692;6.226;2022-11-09T23:25:09;12.90;99.90
51739;DHT22;37815;52.692;6.226;2022-11-09T23:30:29;12.90;99.90
51739;DHT22;37815;52.692;6.226;2022-11-09T23:35:30;12.70;99.90
51739;DHT22;37815;52.692;6.226;2022-11-09T23:40:32;12.90;99.90
51739;DHT22;37815;52.692;6.226;2022-11-09T23:45:34;12.90;99.90
51739;DHT22;37815;52.692;6.226;2022-11-09T23:50:34;12.90;99.90
51739;DHT22;37815;52.692;6.226;2022-11-09T23:55:35;12.90;99.90
